sensor_id;sensor_type;location;lat;lon;timestamp;noise_LAeq;noise_LA_min;noise_LA_max;noise_LA01;noise_LA95
18377;Laerm;9315;52.624;13.544;2022-11-15T00:01:17;45.88;41.83;52.45;;
18377;Laerm;9315;52.624;13.544;2022-11-15T00:03:45;58.73;42.17;77.44;;
18377;Laerm;9315;52.624;13.544;2022-11-15T00:06:13;53.87;42.61;69.81;;
18377;Laerm;9315;52.624;13.544;2022-11-15T00:08:40;46.82;41.80;51.39;;
18377;Laerm;9315;52.624;13.544;2022-11-15T00:11:11;61.77;40.84;80.80;;
18377;Laerm;9315;52.624;13.544;2022-11-15T00:13:39;61.45;41.52;80.20;;
18377;Laerm;9315;52.624;13.544;2022-11-15T00:16:07;51.61;42.28;64.72;;
18377;Laerm;9315;52.624;13.544;2022-11-15T00:18:35;47.33;42.71;52.43;;
18377;Laerm;9315;52.624;13.544;2022-11-15T00:21:07;45.35;40.40;51.52;;
18377;Laerm;9315;52.624;13.544;2022-11-15T00:23:34;46.77;42.49;54.19;;
18377;Laerm;9315;52.624;13.544;2022-11-15T00:26:01;45.76;41.77;52.44;;
18377;Laerm;9315;52.624;13.544;2022-11-15T00:28:29;45.61;40.62;52.03;;
18377;Laerm;9315;52.624;13.544;2022-11-15T00:31:06;61.08;40.50;78.88;;
18377;Laerm;9315;52.624;13.544;2022-11-15T00:33:34;63.45;43.10;79.74;;
18377;Laerm;9315;52.624;13.544;2022-11-15T00:36:07;52.53;40.10;70.11;;
18377;Laerm;9315;52.624;13.544;2022-11-15T00:38:39;45.30;41.43;52.76;;
18377;Laerm;9315;52.624;13.544;2022-11-15T00:41:07;57.16;43.22;76.23;;
18377;Laerm;9315;52.624;13.544;2022-11-15T00:43:36;62.88;41.85;81.28;;
18377;Laerm;9315;52.624;13.544;2022-11-15T00:46:03;46.19;40.98;53.66;;
18377;Laerm;9315;52.624;13.544;2022-11-15T00:48:30;57.46;41.90;74.31;;
18377;Laerm;9315;52.624;13.544;2022-11-15T00:50:58;56.17;40.90;73.45;;
18377;Laerm;9315;52.624;13.544;2022-11-15T00:53:25;44.25;39.70;51.50;;
18377;Laerm;9315;52.624;13.544;2022-11-15T00:55:53;55.46;38.88;72.54;;
18377;Laerm;9315;52.624;13.544;2022-11-15T00:58:21;60.54;41.76;78.66;;
18377;Laerm;9315;52.624;13.544;2022-11-15T01:00:48;45.06;40.53;50.05;;
18377;Laerm;9315;52.624;13.544;2022-11-15T01:03:15;54.40;39.40;72.29;;
18377;Laerm;9315;52.624;13.544;2022-11-15T01:05:42;44.56;40.82;50.12;;
18377;Laerm;9315;52.624;13.544;2022-11-15T01:08:15;57.89;42.22;76.94;;
18377;Laerm;9315;52.624;13.544;2022-11-15T01:10:42;61.86;41.01;79.03;;
18377;Laerm;9315;52.624;13.544;2022-11-15T01:13:09;52.13;40.67;68.47;;
18377;Laerm;9315;52.624;13.544;2022-11-15T01:15:40;55.45;41.80;71.54;;
18377;Laerm;9315;52.624;13.544;2022-11-15T01:18:08;59.75;42.05;72.46;;
18377;Laerm;9315;52.624;13.544;2022-11-15T01:20:42;45.76;40.78;53.70;;
18377;Laerm;9315;52.624;13.544;2022-11-15T01:23:10;46.18;41.77;52.54;;
18377;Laerm;9315;52.624;13.544;2022-11-15T01:25:37;57.62;41.31;75.09;;
18377;Laerm;9315;52.624;13.544;2022-11-15T01:28:04;47.94;40.79;63.56;;
18377;Laerm;9315;52.624;13.544;2022-11-15T01:30:31;61.50;43.57;75.93;;
18377;Laerm;9315;52.624;13.544;2022-11-15T01:32:58;47.27;42.24;53.40;;
18377;Laerm;9315;52.624;13.544;2022-11-15T01:35:25;55.53;43.03;72.35;;
18377;Laerm;9315;52.624;13.544;2022-11-15T01:37:52;61.34;44.73;76.62;;
18377;Laerm;9315;52.624;13.544;2022-11-15T01:40:19;45.90;41.55;52.78;;
18377;Laerm;9315;52.624;13.544;2022-11-15T01:42:46;55.62;42.12;72.22;;
18377;Laerm;9315;52.624;13.544;2022-11-15T01:45:16;58.64;41.84;76.87;;
18377;Laerm;9315;52.624;13.544;2022-11-15T01:47:52;54.04;38.75;70.30;;
18377;Laerm;9315;52.624;13.544;2022-11-15T01:50:28;61.35;43.52;79.02;;
18377;Laerm;9315;52.624;13.544;2022-11-15T01:52:57;59.20;42.48;74.16;;
18377;Laerm;9315;52.624;13.544;2022-11-15T01:55:26;47.41;41.93;55.33;;
18377;Laerm;9315;52.624;13.544;2022-11-15T01:58:01;58.48;43.39;72.97;;
18377;Laerm;9315;52.624;13.544;2022-11-15T02:00:29;48.71;42.19;58.04;;
18377;Laerm;9315;52.624;13.544;2022-11-15T02:02:58;59.46;44.28;78.74;;
18377;Laerm;9315;52.624;13.544;2022-11-15T02:05:25;47.95;43.05;54.90;;
18377;Laerm;9315;52.624;13.544;2022-11-15T02:07:52;60.97;44.15;76.50;;
18377;Laerm;9315;52.624;13.544;2022-11-15T02:10:23;57.19;42.63;71.69;;
18377;Laerm;9315;52.624;13.544;2022-11-15T02:12:51;61.86;43.73;75.65;;
18377;Laerm;9315;52.624;13.544;2022-11-15T02:15:19;56.12;43.12;72.53;;
18377;Laerm;9315;52.624;13.544;2022-11-15T02:18:22;53.92;45.07;68.98;;
18377;Laerm;9315;52.624;13.544;2022-11-15T02:36:46;53.39;41.32;70.01;;
18377;Laerm;9315;52.624;13.544;2022-11-15T02:39:59;56.34;43.58;74.28;;
18377;Laerm;9315;52.624;13.544;2022-11-15T02:42:36;54.97;43.37;71.00;;
18377;Laerm;9315;52.624;13.544;2022-11-15T02:45:41;48.19;42.87;56.05;;
18377;Laerm;9315;52.624;13.544;2022-11-15T02:48:11;55.22;43.30;72.17;;
18377;Laerm;9315;52.624;13.544;2022-11-15T02:50:39;55.81;44.22;72.27;;
18377;Laerm;9315;52.624;13.544;2022-11-15T02:53:08;47.02;41.76;54.29;;
18377;Laerm;9315;52.624;13.544;2022-11-15T02:55:45;63.05;44.17;77.98;;
18377;Laerm;9315;52.624;13.544;2022-11-15T03:11:14;64.31;43.71;82.72;;
18377;Laerm;9315;52.624;13.544;2022-11-15T03:14:28;54.20;41.30;72.59;;
18377;Laerm;9315;52.624;13.544;2022-11-15T03:17:26;61.57;44.70;75.23;;
18377;Laerm;9315;52.624;13.544;2022-11-15T03:20:02;61.04;48.36;75.84;;
18377;Laerm;9315;52.624;13.544;2022-11-15T03:22:41;57.67;46.44;72.99;;
18377;Laerm;9315;52.624;13.544;2022-11-15T03:25:16;61.81;45.79;76.92;;
18377;Laerm;9315;52.624;13.544;2022-11-15T03:27:51;58.88;47.57;73.91;;
18377;Laerm;9315;52.624;13.544;2022-11-15T03:30:19;64.36;47.23;78.07;;
18377;Laerm;9315;52.624;13.544;2022-11-15T03:33:05;65.84;49.14;78.45;;
18377;Laerm;9315;52.624;13.544;2022-11-15T03:35:39;63.92;49.36;76.81;;
18377;Laerm;9315;52.624;13.544;2022-11-15T03:38:25;65.40;48.91;76.29;;
18377;Laerm;9315;52.624;13.544;2022-11-15T03:41:04;66.15;48.19;77.94;;
18377;Laerm;9315;52.624;13.544;2022-11-15T03:43:59;62.36;48.39;75.22;;
18377;Laerm;9315;52.624;13.544;2022-11-15T03:46:47;65.10;48.74;78.66;;
18377;Laerm;9315;52.624;13.544;2022-11-15T03:49:37;66.22;48.84;80.74;;
18377;Laerm;9315;52.624;13.544;2022-11-15T03:52:07;64.27;50.72;75.07;;
18377;Laerm;9315;52.624;13.544;2022-11-15T03:54:36;63.55;48.64;76.80;;
18377;Laerm;9315;52.624;13.544;2022-11-15T03:57:03;64.22;47.32;74.11;;
18377;Laerm;9315;52.624;13.544;2022-11-15T03:59:30;63.03;47.02;76.23;;
18377;Laerm;9315;52.624;13.544;2022-11-15T04:01:57;67.22;49.92;79.55;;
18377;Laerm;9315;52.624;13.544;2022-11-15T04:04:24;64.73;50.52;76.05;;
18377;Laerm;9315;52.624;13.544;2022-11-15T04:06:51;65.86;50.14;75.54;;
18377;Laerm;9315;52.624;13.544;2022-11-15T04:09:20;68.28;50.66;80.03;;
18377;Laerm;9315;52.624;13.544;2022-11-15T04:11:47;66.29;51.14;76.17;;
18377;Laerm;9315;52.624;13.544;2022-11-15T04:14:14;68.30;53.11;79.30;;
18377;Laerm;9315;52.624;13.544;2022-11-15T04:16:41;66.96;52.64;76.52;;
18377;Laerm;9315;52.624;13.544;2022-11-15T04:19:10;68.21;54.62;77.46;;
18377;Laerm;9315;52.624;13.544;2022-11-15T04:21:55;68.66;53.28;79.29;;
18377;Laerm;9315;52.624;13.544;2022-11-15T04:24:41;68.65;52.89;81.81;;
18377;Laerm;9315;52.624;13.544;2022-11-15T04:27:08;67.05;53.33;78.00;;
18377;Laerm;9315;52.624;13.544;2022-11-15T04:29:35;68.92;53.59;82.36;;
18377;Laerm;9315;52.624;13.544;2022-11-15T04:32:05;67.03;54.45;76.36;;
18377;Laerm;9315;52.624;13.544;2022-11-15T04:34:33;67.15;52.02;78.15;;
18377;Laerm;9315;52.624;13.544;2022-11-15T04:37:00;68.24;52.54;79.65;;
18377;Laerm;9315;52.624;13.544;2022-11-15T04:39:41;68.41;53.37;77.56;;
18377;Laerm;9315;52.624;13.544;2022-11-15T04:42:09;68.26;54.14;80.33;;
18377;Laerm;9315;52.624;13.544;2022-11-15T04:44:36;67.49;54.57;76.15;;
18377;Laerm;9315;52.624;13.544;2022-11-15T04:47:04;69.50;54.46;83.07;;
18377;Laerm;9315;52.624;13.544;2022-11-15T04:49:34;70.13;55.03;82.31;;
18377;Laerm;9315;52.624;13.544;2022-11-15T04:52:01;68.01;55.56;79.53;;
18377;Laerm;9315;52.624;13.544;2022-11-15T04:54:28;66.51;54.61;76.33;;
18377;Laerm;9315;52.624;13.544;2022-11-15T04:56:55;67.31;53.71;76.80;;
18377;Laerm;9315;52.624;13.544;2022-11-15T04:59:22;68.06;55.64;78.37;;
18377;Laerm;9315;52.624;13.544;2022-11-15T05:01:52;71.14;57.21;83.52;;
18377;Laerm;9315;52.624;13.544;2022-11-15T05:04:19;68.26;54.19;79.04;;
18377;Laerm;9315;52.624;13.544;2022-11-15T05:06:51;69.28;55.00;77.37;;
18377;Laerm;9315;52.624;13.544;2022-11-15T05:09:20;68.50;55.16;77.74;;
18377;Laerm;9315;52.624;13.544;2022-11-15T05:11:48;70.42;55.24;79.93;;
18377;Laerm;9315;52.624;13.544;2022-11-15T05:14:15;69.47;54.59;80.09;;
18377;Laerm;9315;52.624;13.544;2022-11-15T05:16:42;68.84;55.81;78.91;;
18377;Laerm;9315;52.624;13.544;2022-11-15T05:19:10;69.25;55.73;79.29;;
18377;Laerm;9315;52.624;13.544;2022-11-15T05:21:40;69.67;55.59;81.17;;
18377;Laerm;9315;52.624;13.544;2022-11-15T05:24:12;70.00;55.85;78.54;;
18377;Laerm;9315;52.624;13.544;2022-11-15T05:26:39;69.73;55.77;79.61;;
18377;Laerm;9315;52.624;13.544;2022-11-15T05:29:08;69.77;56.02;78.53;;
18377;Laerm;9315;52.624;13.544;2022-11-15T05:31:40;70.79;55.85;78.33;;
18377;Laerm;9315;52.624;13.544;2022-11-15T05:34:08;69.47;55.38;78.19;;
18377;Laerm;9315;52.624;13.544;2022-11-15T05:36:42;68.86;56.17;78.54;;
18377;Laerm;9315;52.624;13.544;2022-11-15T05:39:09;71.67;58.07;83.57;;
18377;Laerm;9315;52.624;13.544;2022-11-15T05:41:52;70.74;57.60;81.92;;
18377;Laerm;9315;52.624;13.544;2022-11-15T05:44:24;69.84;54.55;81.26;;
18377;Laerm;9315;52.624;13.544;2022-11-15T05:46:54;67.81;55.95;79.21;;
18377;Laerm;9315;52.624;13.544;2022-11-15T05:49:29;69.97;54.77;81.97;;
18377;Laerm;9315;52.624;13.544;2022-11-15T05:52:00;71.49;55.90;81.40;;
18377;Laerm;9315;52.624;13.544;2022-11-15T05:54:31;68.72;54.81;78.13;;
18377;Laerm;9315;52.624;13.544;2022-11-15T05:56:59;69.61;55.86;81.02;;
18377;Laerm;9315;52.624;13.544;2022-11-15T05:59:29;71.30;55.90;79.80;;
18377;Laerm;9315;52.624;13.544;2022-11-15T06:01:58;71.20;57.13;79.60;;
18377;Laerm;9315;52.624;13.544;2022-11-15T06:04:26;70.50;57.14;78.73;;
18377;Laerm;9315;52.624;13.544;2022-11-15T06:06:53;72.07;56.26;81.79;;
18377;Laerm;9315;52.624;13.544;2022-11-15T06:09:20;71.28;55.54;84.09;;
18377;Laerm;9315;52.624;13.544;2022-11-15T06:11:47;71.76;57.25;82.46;;
18377;Laerm;9315;52.624;13.544;2022-11-15T06:14:15;71.24;55.91;78.88;;
18377;Laerm;9315;52.624;13.544;2022-11-15T06:16:42;70.90;55.69;81.14;;
18377;Laerm;9315;52.624;13.544;2022-11-15T06:19:09;69.86;58.05;78.13;;
18377;Laerm;9315;52.624;13.544;2022-11-15T06:21:36;72.11;58.22;78.85;;
18377;Laerm;9315;52.624;13.544;2022-11-15T06:24:04;71.07;59.03;81.12;;
18377;Laerm;9315;52.624;13.544;2022-11-15T06:26:31;71.63;57.08;80.41;;
18377;Laerm;9315;52.624;13.544;2022-11-15T06:28:59;71.75;57.91;79.67;;
18377;Laerm;9315;52.624;13.544;2022-11-15T06:31:26;70.83;58.04;78.72;;
18377;Laerm;9315;52.624;13.544;2022-11-15T06:33:53;72.24;57.04;83.32;;
18377;Laerm;9315;52.624;13.544;2022-11-15T06:36:20;71.49;56.76;78.11;;
18377;Laerm;9315;52.624;13.544;2022-11-15T06:38:47;69.54;56.51;78.36;;
18377;Laerm;9315;52.624;13.544;2022-11-15T06:41:14;71.95;56.18;84.49;;
18377;Laerm;9315;52.624;13.544;2022-11-15T06:43:42;70.67;56.69;80.77;;
18377;Laerm;9315;52.624;13.544;2022-11-15T06:46:09;70.94;58.33;83.83;;
18377;Laerm;9315;52.624;13.544;2022-11-15T06:48:36;71.32;57.41;80.15;;
18377;Laerm;9315;52.624;13.544;2022-11-15T06:51:04;70.60;57.07;79.94;;
18377;Laerm;9315;52.624;13.544;2022-11-15T06:53:32;71.30;57.69;78.91;;
18377;Laerm;9315;52.624;13.544;2022-11-15T06:56:05;69.63;57.78;77.97;;
18377;Laerm;9315;52.624;13.544;2022-11-15T06:58:33;70.94;58.77;79.20;;
18377;Laerm;9315;52.624;13.544;2022-11-15T07:01:11;72.00;56.37;82.21;;
18377;Laerm;9315;52.624;13.544;2022-11-15T07:03:41;70.66;57.96;81.21;;
18377;Laerm;9315;52.624;13.544;2022-11-15T07:06:10;70.47;56.09;78.72;;
18377;Laerm;9315;52.624;13.544;2022-11-15T07:08:37;71.09;56.44;88.75;;
18377;Laerm;9315;52.624;13.544;2022-11-15T07:11:07;70.29;57.37;81.61;;
18377;Laerm;9315;52.624;13.544;2022-11-15T07:13:36;70.12;57.42;79.44;;
18377;Laerm;9315;52.624;13.544;2022-11-15T07:16:07;71.05;56.70;81.76;;
18377;Laerm;9315;52.624;13.544;2022-11-15T07:18:40;70.92;56.77;80.45;;
18377;Laerm;9315;52.624;13.544;2022-11-15T07:21:10;70.64;57.53;81.08;;
18377;Laerm;9315;52.624;13.544;2022-11-15T07:23:38;71.33;56.78;79.87;;
18377;Laerm;9315;52.624;13.544;2022-11-15T07:26:07;69.50;55.81;77.75;;
18377;Laerm;9315;52.624;13.544;2022-11-15T07:28:35;70.04;55.91;81.77;;
18377;Laerm;9315;52.624;13.544;2022-11-15T07:31:07;70.54;56.16;77.91;;
18377;Laerm;9315;52.624;13.544;2022-11-15T07:33:35;71.70;56.93;81.71;;
18377;Laerm;9315;52.624;13.544;2022-11-15T07:36:05;67.72;55.75;78.19;;
18377;Laerm;9315;52.624;13.544;2022-11-15T07:38:34;70.93;55.16;81.73;;
18377;Laerm;9315;52.624;13.544;2022-11-15T07:41:08;70.23;56.84;80.26;;
18377;Laerm;9315;52.624;13.544;2022-11-15T07:43:35;70.54;55.46;80.99;;
18377;Laerm;9315;52.624;13.544;2022-11-15T07:46:08;70.60;55.42;78.96;;
18377;Laerm;9315;52.624;13.544;2022-11-15T07:48:39;68.81;54.36;80.03;;
18377;Laerm;9315;52.624;13.544;2022-11-15T07:51:13;68.92;55.94;77.55;;
18377;Laerm;9315;52.624;13.544;2022-11-15T07:53:42;70.84;56.24;80.22;;
18377;Laerm;9315;52.624;13.544;2022-11-15T07:56:10;67.35;55.19;76.55;;
18377;Laerm;9315;52.624;13.544;2022-11-15T07:58:37;66.58;52.11;77.88;;
18377;Laerm;9315;52.624;13.544;2022-11-15T08:01:07;69.96;54.79;80.71;;
18377;Laerm;9315;52.624;13.544;2022-11-15T08:03:36;70.26;53.85;78.90;;
18377;Laerm;9315;52.624;13.544;2022-11-15T08:06:06;71.06;56.92;87.74;;
18377;Laerm;9315;52.624;13.544;2022-11-15T08:08:33;69.63;54.98;81.82;;
18377;Laerm;9315;52.624;13.544;2022-11-15T08:11:01;70.59;54.17;79.09;;
18377;Laerm;9315;52.624;13.544;2022-11-15T08:13:28;69.06;54.52;77.76;;
18377;Laerm;9315;52.624;13.544;2022-11-15T08:16:01;68.96;54.08;77.69;;
18377;Laerm;9315;52.624;13.544;2022-11-15T08:18:28;70.74;53.87;81.38;;
18377;Laerm;9315;52.624;13.544;2022-11-15T08:21:02;69.93;51.30;79.79;;
18377;Laerm;9315;52.624;13.544;2022-11-15T08:23:29;70.42;52.74;78.98;;
18377;Laerm;9315;52.624;13.544;2022-11-15T08:26:03;70.57;52.97;79.38;;
18377;Laerm;9315;52.624;13.544;2022-11-15T08:28:32;70.03;53.77;79.67;;
18377;Laerm;9315;52.624;13.544;2022-11-15T08:31:01;69.86;53.53;80.54;;
18377;Laerm;9315;52.624;13.544;2022-11-15T08:33:30;70.10;51.98;84.30;;
18377;Laerm;9315;52.624;13.544;2022-11-15T08:36:00;69.97;51.11;83.59;;
18377;Laerm;9315;52.624;13.544;2022-11-15T08:38:28;70.32;51.11;80.43;;
18377;Laerm;9315;52.624;13.544;2022-11-15T08:41:04;69.94;50.34;79.96;;
18377;Laerm;9315;52.624;13.544;2022-11-15T08:43:31;71.08;52.66;84.90;;
18377;Laerm;9315;52.624;13.544;2022-11-15T08:45:59;69.54;49.60;78.19;;
18377;Laerm;9315;52.624;13.544;2022-11-15T08:48:26;69.28;49.49;81.78;;
18377;Laerm;9315;52.624;13.544;2022-11-15T08:50:55;70.58;48.90;84.37;;
18377;Laerm;9315;52.624;13.544;2022-11-15T08:53:23;69.69;49.60;77.72;;
18377;Laerm;9315;52.624;13.544;2022-11-15T08:55:51;69.01;50.21;76.78;;
18377;Laerm;9315;52.624;13.544;2022-11-15T08:58:19;69.44;48.82;79.42;;
18377;Laerm;9315;52.624;13.544;2022-11-15T09:00:46;68.34;47.11;80.32;;
18377;Laerm;9315;52.624;13.544;2022-11-15T09:03:13;67.76;47.43;78.97;;
18377;Laerm;9315;52.624;13.544;2022-11-15T09:05:41;70.95;51.01;77.98;;
18377;Laerm;9315;52.624;13.544;2022-11-15T09:08:08;69.25;48.08;84.28;;
18377;Laerm;9315;52.624;13.544;2022-11-15T09:10:55;68.29;48.11;78.31;;
18377;Laerm;9315;52.624;13.544;2022-11-15T09:13:24;69.73;47.67;79.27;;
18377;Laerm;9315;52.624;13.544;2022-11-15T09:15:51;68.57;47.49;82.70;;
18377;Laerm;9315;52.624;13.544;2022-11-15T09:18:18;69.46;47.18;79.15;;
18377;Laerm;9315;52.624;13.544;2022-11-15T09:20:48;70.72;45.14;84.14;;
18377;Laerm;9315;52.624;13.544;2022-11-15T09:23:15;70.38;49.32;81.69;;
18377;Laerm;9315;52.624;13.544;2022-11-15T09:25:42;70.13;46.31;79.24;;
18377;Laerm;9315;52.624;13.544;2022-11-15T09:28:09;70.44;47.94;83.51;;
18377;Laerm;9315;52.624;13.544;2022-11-15T09:30:36;69.77;47.46;79.34;;
18377;Laerm;9315;52.624;13.544;2022-11-15T09:33:11;70.42;49.12;79.80;;
18377;Laerm;9315;52.624;13.544;2022-11-15T09:35:39;69.14;48.19;76.52;;
18377;Laerm;9315;52.624;13.544;2022-11-15T09:38:07;70.13;47.67;80.89;;
18377;Laerm;9315;52.624;13.544;2022-11-15T09:40:37;69.43;45.45;86.86;;
18377;Laerm;9315;52.624;13.544;2022-11-15T09:49:16;68.87;47.91;80.60;;
18377;Laerm;9315;52.624;13.544;2022-11-15T09:51:49;69.38;48.56;79.24;;
18377;Laerm;9315;52.624;13.544;2022-11-15T09:54:37;69.25;45.86;78.80;;
18377;Laerm;9315;52.624;13.544;2022-11-15T10:03:35;70.10;45.10;79.78;;
18377;Laerm;9315;52.624;13.544;2022-11-15T10:06:24;67.04;45.25;77.23;;
18377;Laerm;9315;52.624;13.544;2022-11-15T10:09:25;68.47;44.92;77.73;;
18377;Laerm;9315;52.624;13.544;2022-11-15T10:11:56;70.71;51.22;82.94;;
18377;Laerm;9315;52.624;13.544;2022-11-15T10:14:27;68.75;45.13;76.83;;
18377;Laerm;9315;52.624;13.544;2022-11-15T10:17:06;68.76;43.51;80.85;;
18377;Laerm;9315;52.624;13.544;2022-11-15T10:22:46;69.23;45.10;79.57;;
18377;Laerm;9315;52.624;13.544;2022-11-15T10:25:22;69.13;44.11;80.04;;
18377;Laerm;9315;52.624;13.544;2022-11-15T10:30:58;69.74;45.83;78.80;;
18377;Laerm;9315;52.624;13.544;2022-11-15T10:33:37;70.45;52.22;77.67;;
18377;Laerm;9315;52.624;13.544;2022-11-15T10:38:56;69.24;46.65;80.64;;
18377;Laerm;9315;52.624;13.544;2022-11-15T10:49:33;67.54;44.96;81.21;;
18377;Laerm;9315;52.624;13.544;2022-11-15T10:54:44;70.54;51.81;79.36;;
18377;Laerm;9315;52.624;13.544;2022-11-15T10:57:22;68.48;44.43;78.14;;
18377;Laerm;9315;52.624;13.544;2022-11-15T11:00:26;70.49;46.42;80.71;;
18377;Laerm;9315;52.624;13.544;2022-11-15T11:05:34;67.32;44.95;77.05;;
18377;Laerm;9315;52.624;13.544;2022-11-15T11:10:39;69.83;44.50;82.81;;
18377;Laerm;9315;52.624;13.544;2022-11-15T11:13:38;69.13;51.50;80.47;;
18377;Laerm;9315;52.624;13.544;2022-11-15T11:27:57;68.78;46.70;77.02;;
18377;Laerm;9315;52.624;13.544;2022-11-15T11:31:16;69.46;39.94;80.62;;
18377;Laerm;9315;52.624;13.544;2022-11-15T11:42:52;70.02;47.75;85.14;;
18377;Laerm;9315;52.624;13.544;2022-11-15T11:48:56;70.43;44.00;91.83;;
18377;Laerm;9315;52.624;13.544;2022-11-15T11:51:40;70.17;42.62;80.23;;
18377;Laerm;9315;52.624;13.544;2022-11-15T12:00:24;67.78;42.23;77.97;;
18377;Laerm;9315;52.624;13.544;2022-11-15T12:05:44;71.13;41.74;83.52;;
18377;Laerm;9315;52.624;13.544;2022-11-15T12:08:49;68.13;47.51;79.33;;
18377;Laerm;9315;52.624;13.544;2022-11-15T12:14:45;69.88;41.71;78.88;;
18377;Laerm;9315;52.624;13.544;2022-11-15T12:17:14;68.69;45.61;78.43;;
18377;Laerm;9315;52.624;13.544;2022-11-15T12:19:43;70.73;43.67;83.80;;
18377;Laerm;9315;52.624;13.544;2022-11-15T12:25:02;69.38;48.28;81.08;;
18377;Laerm;9315;52.624;13.544;2022-11-15T12:30:50;70.41;46.62;85.51;;
18377;Laerm;9315;52.624;13.544;2022-11-15T12:33:41;72.34;41.98;88.69;;
18377;Laerm;9315;52.624;13.544;2022-11-15T12:36:40;68.69;47.75;79.10;;
18377;Laerm;9315;52.624;13.544;2022-11-15T12:39:14;70.41;47.58;80.26;;
18377;Laerm;9315;52.624;13.544;2022-11-15T12:47:25;69.41;49.40;80.15;;
18377;Laerm;9315;52.624;13.544;2022-11-15T12:49:53;68.37;43.06;79.35;;
18377;Laerm;9315;52.624;13.544;2022-11-15T12:52:21;67.69;44.98;79.21;;
18377;Laerm;9315;52.624;13.544;2022-11-15T12:54:58;67.80;46.55;76.38;;
18377;Laerm;9315;52.624;13.544;2022-11-15T12:57:37;69.05;45.90;79.66;;
18377;Laerm;9315;52.624;13.544;2022-11-15T13:03:23;69.16;50.33;79.39;;
18377;Laerm;9315;52.624;13.544;2022-11-15T13:05:58;69.88;43.63;82.70;;
18377;Laerm;9315;52.624;13.544;2022-11-15T13:08:47;69.43;43.91;78.97;;
18377;Laerm;9315;52.624;13.544;2022-11-15T13:11:49;71.38;42.14;82.69;;
18377;Laerm;9315;52.624;13.544;2022-11-15T13:14:51;69.45;42.61;82.18;;
18377;Laerm;9315;52.624;13.544;2022-11-15T13:22:27;70.34;47.96;78.50;;
18377;Laerm;9315;52.624;13.544;2022-11-15T13:26:13;69.96;49.82;79.20;;
18377;Laerm;9315;52.624;13.544;2022-11-15T13:28:46;69.52;42.72;80.76;;
18377;Laerm;9315;52.624;13.544;2022-11-15T13:31:42;70.27;47.99;78.76;;
18377;Laerm;9315;52.624;13.544;2022-11-15T13:34:31;69.77;47.79;81.70;;
18377;Laerm;9315;52.624;13.544;2022-11-15T13:39:49;70.58;46.30;78.54;;
18377;Laerm;9315;52.624;13.544;2022-11-15T13:42:19;69.67;45.59;80.72;;
18377;Laerm;9315;52.624;13.544;2022-11-15T13:45:03;69.00;46.63;78.31;;
18377;Laerm;9315;52.624;13.544;2022-11-15T13:47:32;68.87;48.25;80.25;;
18377;Laerm;9315;52.624;13.544;2022-11-15T13:50:00;69.40;48.88;77.09;;
18377;Laerm;9315;52.624;13.544;2022-11-15T13:52:40;69.59;44.18;77.97;;
18377;Laerm;9315;52.624;13.544;2022-11-15T13:55:17;69.85;48.62;78.40;;
18377;Laerm;9315;52.624;13.544;2022-11-15T13:58:04;69.43;43.57;79.47;;
18377;Laerm;9315;52.624;13.544;2022-11-15T14:00:44;69.50;43.08;80.45;;
18377;Laerm;9315;52.624;13.544;2022-11-15T14:03:32;71.20;46.38;83.95;;
18377;Laerm;9315;52.624;13.544;2022-11-15T14:06:16;70.61;48.07;85.66;;
18377;Laerm;9315;52.624;13.544;2022-11-15T14:11:53;68.93;47.49;78.45;;
18377;Laerm;9315;52.624;13.544;2022-11-15T14:14:29;70.90;48.44;85.36;;
18377;Laerm;9315;52.624;13.544;2022-11-15T14:17:00;69.17;49.32;81.34;;
18377;Laerm;9315;52.624;13.544;2022-11-15T14:22:25;69.48;49.57;78.62;;
18377;Laerm;9315;52.624;13.544;2022-11-15T14:25:21;69.12;44.04;77.83;;
18377;Laerm;9315;52.624;13.544;2022-11-15T14:28:29;70.41;45.99;78.39;;
18377;Laerm;9315;52.624;13.544;2022-11-15T14:31:00;71.39;53.39;91.93;;
18377;Laerm;9315;52.624;13.544;2022-11-15T14:33:36;68.91;45.21;77.79;;
18377;Laerm;9315;52.624;13.544;2022-11-15T14:36:19;69.52;46.37;79.39;;
18377;Laerm;9315;52.624;13.544;2022-11-15T14:38:47;69.59;52.35;78.04;;
18377;Laerm;9315;52.624;13.544;2022-11-15T14:41:25;70.52;46.21;77.60;;
18377;Laerm;9315;52.624;13.544;2022-11-15T14:43:53;70.28;57.08;79.35;;
18377;Laerm;9315;52.624;13.544;2022-11-15T14:46:20;69.01;47.35;85.81;;
18377;Laerm;9315;52.624;13.544;2022-11-15T14:48:47;70.71;48.31;83.20;;
18377;Laerm;9315;52.624;13.544;2022-11-15T14:51:18;70.91;47.89;78.40;;
18377;Laerm;9315;52.624;13.544;2022-11-15T14:53:46;70.24;46.65;77.42;;
18377;Laerm;9315;52.624;13.544;2022-11-15T14:56:15;68.93;46.03;76.47;;
18377;Laerm;9315;52.624;13.544;2022-11-15T14:58:43;70.76;48.60;78.34;;
18377;Laerm;9315;52.624;13.544;2022-11-15T15:01:25;69.78;54.02;77.59;;
18377;Laerm;9315;52.624;13.544;2022-11-15T15:03:53;68.42;51.02;79.79;;
18377;Laerm;9315;52.624;13.544;2022-11-15T15:06:25;71.48;54.23;91.06;;
18377;Laerm;9315;52.624;13.544;2022-11-15T15:08:53;68.60;53.73;78.85;;
18377;Laerm;9315;52.624;13.544;2022-11-15T15:11:26;69.58;50.39;80.02;;
18377;Laerm;9315;52.624;13.544;2022-11-15T15:13:55;71.27;50.33;85.56;;
18377;Laerm;9315;52.624;13.544;2022-11-15T15:16:27;69.17;48.12;78.40;;
18377;Laerm;9315;52.624;13.544;2022-11-15T15:18:54;69.25;45.94;81.98;;
18377;Laerm;9315;52.624;13.544;2022-11-15T15:21:25;69.37;47.94;82.79;;
18377;Laerm;9315;52.624;13.544;2022-11-15T15:24:02;71.35;51.52;84.47;;
18377;Laerm;9315;52.624;13.544;2022-11-15T15:26:29;70.13;55.98;79.92;;
18377;Laerm;9315;52.624;13.544;2022-11-15T15:29:00;70.17;57.86;78.38;;
18377;Laerm;9315;52.624;13.544;2022-11-15T15:31:27;70.22;47.03;81.81;;
18377;Laerm;9315;52.624;13.544;2022-11-15T15:33:54;68.61;49.60;76.87;;
18377;Laerm;9315;52.624;13.544;2022-11-15T15:36:21;67.29;53.03;75.72;;
18377;Laerm;9315;52.624;13.544;2022-11-15T15:38:48;69.54;47.87;81.07;;
18377;Laerm;9315;52.624;13.544;2022-11-15T15:41:16;68.14;48.45;76.93;;
18377;Laerm;9315;52.624;13.544;2022-11-15T15:43:44;70.41;49.90;78.89;;
18377;Laerm;9315;52.624;13.544;2022-11-15T15:46:18;69.22;49.37;78.78;;
18377;Laerm;9315;52.624;13.544;2022-11-15T15:48:47;70.48;55.19;84.39;;
18377;Laerm;9315;52.624;13.544;2022-11-15T15:51:14;69.72;51.42;77.74;;
18377;Laerm;9315;52.624;13.544;2022-11-15T15:53:47;69.59;50.29;80.72;;
18377;Laerm;9315;52.624;13.544;2022-11-15T15:56:15;68.92;52.81;77.08;;
18377;Laerm;9315;52.624;13.544;2022-11-15T15:58:42;67.90;46.81;75.78;;
18377;Laerm;9315;52.624;13.544;2022-11-15T16:01:09;69.52;51.24;79.80;;
18377;Laerm;9315;52.624;13.544;2022-11-15T16:03:36;69.14;53.08;76.23;;
18377;Laerm;9315;52.624;13.544;2022-11-15T16:06:03;69.38;53.08;78.25;;
18377;Laerm;9315;52.624;13.544;2022-11-15T16:08:31;71.10;49.86;79.02;;
18377;Laerm;9315;52.624;13.544;2022-11-15T16:11:19;69.81;50.55;76.94;;
18377;Laerm;9315;52.624;13.544;2022-11-15T16:13:46;70.76;50.57;79.14;;
18377;Laerm;9315;52.624;13.544;2022-11-15T16:16:13;67.77;46.58;78.54;;
18377;Laerm;9315;52.624;13.544;2022-11-15T16:18:41;71.03;52.26;85.16;;
18377;Laerm;9315;52.624;13.544;2022-11-15T16:21:08;68.87;47.88;77.91;;
18377;Laerm;9315;52.624;13.544;2022-11-15T16:23:35;69.71;47.23;78.77;;
18377;Laerm;9315;52.624;13.544;2022-11-15T16:26:22;67.21;45.78;77.22;;